Time;durP1;ratioP1;P1;durP2;ratioP2;P2;SDS_P1;SDS_P2;PMS_P1;PMS_P2;Temp;Humidity;BMP_temperature;BMP_pressure;BME280_temperature;BME280_humidity;BME280_pressure;Samples;Min_cycle;Max_cycle;Signal;HPM_P1;HPM_P2
2022/08/13 00:00:15;;;;;;;33.40;31.17;;;27.70;37.40;;;;;;5036571;28;20036;-80
2022/08/13 00:02:43;;;;;;;31.52;29.52;;;27.70;37.60;;;;;;5053387;28;20028;-80
2022/08/13 00:05:09;;;;;;;30.67;28.52;;;27.60;38.40;;;;;;5053247;28;20029;-80
2022/08/13 00:07:36;;;;;;;33.20;30.85;;;27.60;39.30;;;;;;5054444;28;20021;-80
2022/08/13 00:10:04;;;;;;;34.85;32.53;;;27.60;39.20;;;;;;5052919;28;20471;-80
2022/08/13 00:15:31;;;;;;;32.50;30.33;;;27.60;39.40;;;;;;5058714;28;20048;-80
2022/08/13 00:17:59;;;;;;;31.77;29.67;;;27.60;39.40;;;;;;5052855;28;20407;-80
2022/08/13 00:20:32;;;;;;;31.42;29.55;;;27.50;40.10;;;;;;5052959;28;20021;-79
2022/08/13 00:22:58;;;;;;;31.88;29.60;;;27.40;40.30;;;;;;5053129;28;20028;-80
2022/08/13 00:25:24;;;;;;;32.05;29.85;;;27.40;40.30;;;;;;5052398;28;20041;-80
2022/08/13 00:27:56;;;;;;;31.77;29.60;;;27.40;40.70;;;;;;5052469;28;20393;-80
2022/08/13 00:30:29;;;;;;;30.85;28.67;;;27.30;40.70;;;;;;5052445;28;20033;-80
2022/08/13 00:32:55;;;;;;;30.50;28.40;;;27.30;41.00;;;;;;5036486;28;20037;-80
2022/08/13 00:35:21;;;;;;;31.23;29.23;;;27.20;41.20;;;;;;5035723;28;20078;-80
2022/08/13 00:37:48;;;;;;;29.58;27.52;;;27.20;41.60;;;;;;5052542;28;20391;-80
2022/08/13 00:40:17;;;;;;;31.02;29.02;;;27.10;41.80;;;;;;5037476;28;20391;-79
2022/08/13 00:42:43;;;;;;;34.38;32.35;;;27.10;42.10;;;;;;5033882;28;20472;-80
2022/08/13 00:45:10;;;;;;;33.97;31.33;;;27.00;41.10;;;;;;5029122;28;20025;-79
2022/08/13 00:50:20;;;;;;;32.28;30.20;;;27.00;40.10;;;;;;5059233;28;20494;-80
2022/08/13 00:52:49;;;;;;;30.67;28.58;;;27.00;38.90;;;;;;5052022;28;20507;-80
2022/08/13 00:55:17;;;;;;;33.58;31.20;;;26.90;38.70;;;;;;5052204;28;20029;-80
2022/08/13 00:57:45;;;;;;;32.95;30.55;;;26.80;38.00;;;;;;5051998;28;20029;-80
2022/08/13 01:00:15;;;;;;;31.02;28.67;;;26.90;37.60;;;;;;5053052;28;20036;-79
2022/08/13 01:02:59;;;;;;;29.75;27.90;;;26.90;38.00;;;;;;5035137;28;20044;-79
2022/08/13 01:05:25;;;;;;;32.22;30.23;;;26.90;38.30;;;;;;5052121;28;20399;-80
2022/08/13 01:07:51;;;;;;;31.13;28.80;;;26.80;37.30;;;;;;5051647;28;20502;-79
2022/08/13 01:10:19;;;;;;;30.95;28.98;;;26.80;37.80;;;;;;5035240;28;20502;-80
2022/08/13 01:12:49;;;;;;;32.35;29.95;;;26.80;38.50;;;;;;5052144;28;20040;-80
2022/08/13 01:15:16;;;;;;;31.17;29.25;;;26.80;38.80;;;;;;5051534;28;20036;-80
2022/08/13 01:17:45;;;;;;;32.42;30.13;;;26.70;38.70;;;;;;5051953;28;20044;-79
2022/08/13 01:20:20;;;;;;;31.17;28.88;;;26.70;39.10;;;;;;5051767;28;20025;-80
2022/08/13 01:22:52;;;;;;;30.45;28.52;;;26.70;39.40;;;;;;5051531;28;20479;-80
2022/08/13 01:25:21;;;;;;;28.77;26.75;;;26.60;39.70;;;;;;5051862;28;20044;-80
2022/08/13 01:27:51;;;;;;;30.23;28.42;;;26.60;40.00;;;;;;5035718;28;20044;-80
2022/08/13 01:30:18;;;;;;;30.50;27.90;;;26.50;40.10;;;;;;5051091;28;20041;-80
2022/08/13 01:32:45;;;;;;;30.25;27.90;;;26.50;40.30;;;;;;5034816;28;20029;-80
2022/08/13 01:35:11;;;;;;;29.98;27.77;;;26.50;40.40;;;;;;5034936;28;20048;-80
2022/08/13 01:37:37;;;;;;;30.52;28.25;;;26.50;40.50;;;;;;5034702;28;20517;-80
2022/08/13 01:40:05;;;;;;;30.05;28.13;;;26.40;40.50;;;;;;5038190;28;20037;-80
2022/08/13 01:42:37;;;;;;;29.92;28.02;;;26.40;40.60;;;;;;5015427;28;20380;-80
2022/08/13 01:45:04;;;;;;;30.10;27.33;;;26.30;40.60;;;;;;5026629;28;20022;-80
2022/08/13 01:50:30;;;;;;;28.75;26.88;;;26.30;40.70;;;;;;5033302;28;20044;-80
2022/08/13 01:53:11;;;;;;;28.50;26.25;;;26.30;40.90;;;;;;5031198;28;20044;-80
2022/08/13 01:55:41;;;;;;;29.52;27.23;;;26.20;41.30;;;;;;5014467;28;20044;-80
2022/08/13 01:58:13;;;;;;;29.07;27.07;;;26.10;41.40;;;;;;5031152;28;20036;-79
2022/08/13 02:00:45;;;;;;;31.48;29.17;;;26.10;41.40;;;;;;5013736;28;20299;-80
2022/08/13 02:03:16;;;;;;;29.30;27.40;;;26.10;40.90;;;;;;5015354;28;20025;-79
2022/08/13 02:05:42;;;;;;;;;;;26.00;40.90;;;;;;5014722;28;20033;-80
2022/08/13 02:08:10;;;;;;;27.85;26.10;;;26.00;40.50;;;;;;5031410;28;19920;-79
2022/08/13 02:10:37;;;;;;;28.33;26.48;;;26.00;40.80;;;;;;5014635;28;20480;-80
2022/08/13 02:13:07;;;;;;;28.63;26.70;;;25.90;41.10;;;;;;5030863;28;20031;-80
2022/08/13 02:15:33;;;;;;;28.73;26.83;;;25.90;41.50;;;;;;5013658;28;20484;-79
2022/08/13 02:18:04;;;;;;;27.67;25.95;;;25.90;41.90;;;;;;5014428;28;20037;-80
2022/08/13 02:20:32;;;;;;;28.02;26.17;;;25.90;42.30;;;;;;5014701;28;20461;-80
2022/08/13 02:22:58;;;;;;;28.55;26.40;;;25.90;42.40;;;;;;5014649;28;20041;-80
2022/08/13 02:25:26;;;;;;;26.77;25.05;;;25.80;42.50;;;;;;5030582;28;20041;-80
2022/08/13 02:27:55;;;;;;;27.92;25.83;;;25.70;42.80;;;;;;5014374;28;20041;-80
2022/08/13 02:30:22;;;;;;;27.88;25.88;;;25.70;43.20;;;;;;4997559;28;20534;-79
2022/08/13 02:32:49;;;;;;;28.25;26.35;;;25.60;43.40;;;;;;5014230;28;20484;-80
2022/08/13 02:35:18;;;;;;;29.10;26.83;;;25.50;43.50;;;;;;5030007;28;20380;-79
2022/08/13 02:37:44;;;;;;;28.40;26.40;;;25.50;43.40;;;;;;5030548;28;20021;-79
2022/08/13 02:42:57;;;;;;;27.63;25.83;;;25.40;43.30;;;;;;5055983;28;20036;-80
2022/08/13 02:45:23;;;;;;;29.17;26.92;;;25.40;43.30;;;;;;5033759;28;20029;-80
2022/08/13 02:47:51;;;;;;;27.70;26.00;;;25.40;43.20;;;;;;5050180;28;20041;-80
2022/08/13 02:50:20;;;;;;;27.25;25.55;;;25.40;42.90;;;;;;5049831;28;20412;-80
2022/08/13 02:52:51;;;;;;;28.13;26.38;;;25.40;43.20;;;;;;5050155;28;20028;-80
2022/08/13 02:55:19;;;;;;;27.95;26.05;;;25.40;43.50;;;;;;5051305;28;20036;-80
2022/08/13 02:57:48;;;;;;;28.33;26.08;;;25.30;43.60;;;;;;5050034;28;20028;-80
2022/08/13 03:00:16;;;;;;;27.17;25.48;;;25.30;42.60;;;;;;5049556;28;20028;-80
2022/08/13 03:02:44;;;;;;;26.52;24.77;;;25.20;42.30;;;;;;5032972;28;20029;-79
2022/08/13 03:05:17;;;;;;;26.55;24.58;;;25.10;42.30;;;;;;5049622;28;20032;-79
2022/08/13 03:07:46;;;;;;;26.73;25.00;;;24.90;42.50;;;;;;5049848;28;20029;-79
2022/08/13 03:10:14;;;;;;;26.88;25.02;;;24.80;42.70;;;;;;5033250;28;20057;-80
2022/08/13 03:12:48;;;;;;;26.27;24.33;;;24.70;42.50;;;;;;5049710;28;20467;-79
2022/08/13 03:15:16;;;;;;;26.95;25.02;;;24.70;43.20;;;;;;5049332;28;20033;-79
2022/08/13 03:17:43;;;;;;;25.73;24.13;;;24.60;42.70;;;;;;5032794;28;20041;-79
2022/08/13 03:20:15;;;;;;;24.98;23.30;;;24.60;42.70;;;;;;5032946;28;20041;-80
2022/08/13 03:22:56;;;;;;;25.60;23.90;;;24.40;43.00;;;;;;5033524;28;20063;-80
2022/08/13 03:25:23;;;;;;;25.48;23.63;;;24.10;43.50;;;;;;5049552;28;20025;-80
2022/08/13 03:27:49;;;;;;;26.25;24.45;;;24.10;43.60;;;;;;5032918;28;20040;-80
2022/08/13 03:30:16;;;;;;;25.15;23.17;;;24.00;43.20;;;;;;5049094;28;20045;-79
2022/08/13 03:32:45;;;;;;;26.08;24.08;;;24.00;43.50;;;;;;5032916;28;20037;-80
2022/08/13 03:35:12;;;;;;;27.90;25.60;;;24.10;43.10;;;;;;5032733;28;20052;-79
2022/08/13 03:37:39;;;;;;;24.75;23.00;;;24.30;42.80;;;;;;5049705;28;20028;-79
2022/08/13 03:40:06;;;;;;;25.90;24.25;;;24.30;42.40;;;;;;5036031;28;20085;-79
2022/08/13 03:42:32;;;;;;;26.17;24.33;;;24.30;42.40;;;;;;5029468;28;20030;-80
2022/08/13 03:44:58;;;;;;;26.63;24.55;;;24.40;42.20;;;;;;5024556;28;20033;-80
2022/08/13 03:47:24;;;;;;;25.70;23.92;;;24.40;42.00;;;;;;5047613;28;20049;-79
2022/08/13 03:49:50;;;;;;;25.25;23.45;;;24.40;41.90;;;;;;5049321;28;20071;-79
2022/08/13 03:52:16;;;;;;;26.10;24.20;;;24.50;41.60;;;;;;5049632;28;20033;-79
2022/08/13 03:54:43;;;;;;;26.98;24.95;;;24.50;41.60;;;;;;5050604;28;20052;-79
2022/08/13 03:57:09;;;;;;;26.17;24.50;;;24.40;41.40;;;;;;5049453;28;20017;-79
2022/08/13 03:59:35;;;;;;;25.95;23.85;;;24.40;41.40;;;;;;5049550;28;20059;-80
2022/08/13 04:02:01;;;;;;;25.65;23.65;;;24.50;41.50;;;;;;5049697;28;20029;-79
2022/08/13 04:04:28;;;;;;;25.98;23.92;;;24.60;42.30;;;;;;5049256;28;20029;-79
2022/08/13 04:06:54;;;;;;;26.08;24.23;;;24.60;42.60;;;;;;5049434;28;20025;-79
2022/08/13 04:09:20;;;;;;;25.60;23.90;;;24.60;42.90;;;;;;5049208;28;20033;-79
2022/08/13 04:11:47;;;;;;;25.92;24.27;;;24.50;43.10;;;;;;5050585;28;20025;-79
2022/08/13 04:14:13;;;;;;;27.60;25.80;;;24.50;43.70;;;;;;5032757;28;20053;-79
2022/08/13 04:16:40;;;;;;;28.10;26.17;;;24.40;44.00;;;;;;5048231;28;20403;-79
2022/08/13 04:19:06;;;;;;;27.15;25.52;;;24.30;44.30;;;;;;5049349;28;20040;-80
2022/08/13 04:21:33;;;;;;;27.58;25.67;;;24.20;44.60;;;;;;5032592;28;20037;-79
2022/08/13 04:24:03;;;;;;;27.75;25.75;;;24.20;44.60;;;;;;5032372;28;20050;-79
2022/08/13 04:26:30;;;;;;;28.05;26.25;;;24.20;44.80;;;;;;5049110;28;20497;-79
2022/08/13 04:28:57;;;;;;;27.77;25.55;;;24.20;44.80;;;;;;5049240;28;20439;-79
2022/08/13 04:31:24;;;;;;;27.60;25.70;;;24.20;44.90;;;;;;5049508;28;20021;-79
2022/08/13 04:33:50;;;;;;;27.35;25.60;;;24.20;45.00;;;;;;5035785;28;20044;-80
2022/08/13 04:36:17;;;;;;;27.73;25.50;;;24.20;45.20;;;;;;5030713;28;20046;-79
2022/08/13 04:38:43;;;;;;;29.20;27.23;;;24.20;45.50;;;;;;5018554;28;20044;-79
2022/08/13 04:41:09;;;;;;;29.50;27.52;;;24.10;46.00;;;;;;5053728;28;20029;-80
2022/08/13 04:43:36;;;;;;;29.05;27.25;;;24.10;46.40;;;;;;5032399;28;20037;-80
2022/08/13 04:46:02;;;;;;;30.30;28.55;;;24.00;46.10;;;;;;5023132;28;20445;-79
2022/08/13 04:48:31;;;;;;;31.48;29.50;;;24.00;46.20;;;;;;5035505;28;20419;-79
2022/08/13 04:50:57;;;;;;;31.90;29.77;;;24.00;46.60;;;;;;5052427;28;20044;-80
2022/08/13 04:53:34;;;;;;;32.40;30.20;;;24.00;46.70;;;;;;5052309;28;20387;-80
2022/08/13 04:56:01;;;;;;;30.33;28.42;;;23.90;47.20;;;;;;5052248;28;20037;-79
2022/08/13 04:58:32;;;;;;;30.38;27.85;;;23.90;46.80;;;;;;5052409;28;20383;-79
2022/08/13 05:00:59;;;;;;;28.65;26.92;;;23.90;46.70;;;;;;5051471;28;20033;-79
2022/08/13 05:03:26;;;;;;;25.83;24.23;;;23.90;46.50;;;;;;5052230;28;20036;-80
2022/08/13 05:05:52;;;;;;;26.90;25.33;;;23.80;45.80;;;;;;5035542;28;20041;-80
2022/08/13 05:08:18;;;;;;;29.80;27.80;;;23.80;45.90;;;;;;5035706;28;20384;-79
2022/08/13 05:10:47;;;;;;;28.67;26.40;;;23.80;46.40;;;;;;5051828;28;20045;-79
2022/08/13 05:13:30;;;;;;;25.95;23.63;;;23.80;47.20;;;;;;5035417;28;20048;-79
2022/08/13 05:15:58;;;;;;;25.73;23.92;;;23.70;45.10;;;;;;5051460;28;20357;-80
2022/08/13 05:18:25;;;;;;;27.77;25.85;;;23.50;45.50;;;;;;5052072;28;20033;-80
2022/08/13 05:20:53;;;;;;;32.30;30.23;;;23.60;45.80;;;;;;5051750;28;20021;-79
2022/08/13 05:23:20;;;;;;;30.88;28.98;;;23.70;47.40;;;;;;5035317;28;20051;-79
2022/08/13 05:25:46;;;;;;;31.35;29.45;;;23.70;47.60;;;;;;5051758;28;20021;-79
2022/08/13 05:28:12;;;;;;;29.92;28.13;;;23.70;47.90;;;;;;5034968;28;20052;-80
2022/08/13 05:30:38;;;;;;;30.00;27.50;;;23.70;48.00;;;;;;5050917;28;20491;-79
2022/08/13 05:33:13;;;;;;;28.85;26.85;;;23.70;47.80;;;;;;5035289;28;20037;-80
2022/08/13 05:35:43;;;;;;;28.95;26.77;;;23.70;47.70;;;;;;5051212;28;20048;-79
2022/08/13 05:38:09;;;;;;;29.48;27.08;;;23.70;47.80;;;;;;5034758;28;20411;-80
2022/08/13 05:40:36;;;;;;;28.45;26.33;;;23.70;47.70;;;;;;5052555;28;20029;-80
2022/08/13 05:43:03;;;;;;;29.00;27.00;;;23.80;47.60;;;;;;5033634;28;20048;-80
2022/08/13 05:45:29;;;;;;;29.77;27.33;;;23.90;47.70;;;;;;5034819;28;20506;-80
2022/08/13 05:47:55;;;;;;;29.15;27.13;;;23.90;47.80;;;;;;5051196;28;20048;-80
2022/08/13 05:50:22;;;;;;;29.98;27.70;;;24.00;47.90;;;;;;5051094;28;20044;-79
2022/08/13 05:52:48;;;;;;;31.00;28.90;;;24.00;48.40;;;;;;5034310;28;20510;-79
2022/08/13 05:55:14;;;;;;;31.08;29.23;;;24.10;48.80;;;;;;5051257;28;20037;-79
2022/08/13 05:57:40;;;;;;;30.60;28.60;;;24.10;49.20;;;;;;5034065;28;20029;-80
2022/08/13 06:05:37;;;;;;;30.45;28.27;;;24.40;43.80;;;;;;5054801;28;20035;-79
2022/08/13 06:08:05;;;;;;;29.52;27.63;;;24.30;43.20;;;;;;5051010;28;20494;-79
2022/08/13 06:10:31;;;;;;;30.52;28.02;;;24.30;42.90;;;;;;5050846;28;20040;-80
2022/08/13 06:12:57;;;;;;;30.77;28.80;;;24.20;42.50;;;;;;5050559;28;20033;-79
2022/08/13 06:15:23;;;;;;;30.92;28.52;;;24.20;42.60;;;;;;5050173;28;20033;-79
2022/08/13 06:17:50;;;;;;;29.05;27.17;;;24.40;42.90;;;;;;5052018;28;20036;-79
2022/08/13 06:20:17;;;;;;;30.75;28.75;;;24.50;41.50;;;;;;5033888;28;20036;-79
2022/08/13 06:22:43;;;;;;;30.23;28.30;;;24.60;41.50;;;;;;5034454;28;20391;-79
2022/08/13 06:25:09;;;;;;;30.27;28.38;;;24.60;41.10;;;;;;5033790;28;20048;-79
2022/08/13 06:27:35;;;;;;;30.30;28.40;;;24.80;40.50;;;;;;5051394;28;20059;-79
2022/08/13 06:30:06;;;;;;;31.30;29.10;;;24.70;40.50;;;;;;5033606;28;20062;-79
2022/08/13 06:32:32;;;;;;;30.08;28.00;;;24.80;40.10;;;;;;5032075;28;20029;-80
2022/08/13 06:34:58;;;;;;;32.05;29.92;;;24.90;40.10;;;;;;5033638;28;20060;-79
2022/08/13 06:37:25;;;;;;;33.38;31.42;;;25.00;39.60;;;;;;5034194;28;20033;-79
2022/08/13 06:39:52;;;;;;;32.53;30.52;;;25.10;39.20;;;;;;5033440;28;20041;-79
2022/08/13 06:42:18;;;;;;;34.35;31.80;;;25.20;38.70;;;;;;5050230;28;20024;-80
2022/08/13 06:44:44;;;;;;;33.40;31.50;;;25.30;38.30;;;;;;5020473;28;20068;-80
2022/08/13 06:47:12;;;;;;;32.15;30.35;;;25.30;38.30;;;;;;5030490;28;20053;-79
2022/08/13 06:49:38;;;;;;;32.75;30.85;;;25.20;38.00;;;;;;5050244;28;20472;-79
2022/08/13 06:52:05;;;;;;;32.95;30.85;;;25.30;38.00;;;;;;5033126;28;20040;-79
2022/08/13 06:54:31;;;;;;;35.22;32.72;;;25.40;37.90;;;;;;5049763;28;20029;-80
2022/08/13 06:56:58;;;;;;;34.60;32.40;;;25.40;37.70;;;;;;5051073;28;20475;-79
2022/08/13 06:59:24;;;;;;;34.95;32.55;;;25.50;37.60;;;;;;5050182;28;20032;-79
2022/08/13 07:01:57;;;;;;;35.88;33.58;;;25.60;37.60;;;;;;5049365;28;20032;-79
2022/08/13 07:04:23;;;;;;;35.55;33.42;;;25.70;37.10;;;;;;5050101;28;20021;-79
2022/08/13 07:06:51;;;;;;;37.33;34.97;;;25.80;36.60;;;;;;5049663;28;20550;-79
2022/08/13 07:09:18;;;;;;;38.97;35.65;;;26.10;36.70;;;;;;5033053;28;20042;-79
2022/08/13 07:11:45;;;;;;;35.63;33.47;;;26.30;36.40;;;;;;5033070;28;20479;-79
2022/08/13 07:14:13;;;;;;;36.80;34.03;;;26.50;35.80;;;;;;5049706;28;20032;-79
2022/08/13 07:16:41;;;;;;;38.40;36.10;;;26.50;35.10;;;;;;5049381;28;20041;-79
2022/08/13 07:19:07;;;;;;;35.17;33.08;;;26.50;34.90;;;;;;5049892;28;20384;-79
2022/08/13 07:21:33;;;;;;;36.83;34.20;;;26.40;34.50;;;;;;5049932;28;20044;-79
2022/08/13 07:24:04;;;;;;;35.08;32.38;;;26.30;35.20;;;;;;5049408;28;20055;-79
2022/08/13 07:26:31;;;;;;;34.33;32.28;;;26.20;35.00;;;;;;5049748;28;20029;-79
2022/08/13 07:28:58;;;;;;;36.53;34.30;;;26.20;35.40;;;;;;5049940;28;20025;-79
2022/08/13 07:31:27;;;;;;;36.47;33.72;;;26.40;35.00;;;;;;5049034;28;20048;-79
2022/08/13 07:33:53;;;;;;;38.22;35.65;;;26.50;35.50;;;;;;5033498;28;20395;-79
2022/08/13 07:36:20;;;;;;;35.38;33.28;;;26.70;35.10;;;;;;5050786;28;20490;-79
2022/08/13 07:38:47;;;;;;;36.78;34.65;;;26.70;34.80;;;;;;5032557;28;20423;-79
2022/08/13 07:41:13;;;;;;;36.10;33.67;;;26.80;34.80;;;;;;5033057;28;20045;-79
2022/08/13 07:43:44;;;;;;;35.50;33.47;;;26.90;34.80;;;;;;5045335;28;20025;-79
2022/08/13 07:46:11;;;;;;;39.40;36.90;;;27.00;34.50;;;;;;5021772;28;20411;-79
2022/08/13 07:48:42;;;;;;;38.15;35.58;;;27.10;34.00;;;;;;5049537;28;20033;-79
2022/08/13 07:51:18;;;;;;;36.47;33.72;;;27.10;34.00;;;;;;5050566;28;20033;-79
2022/08/13 07:53:46;;;;;;;36.65;33.90;;;27.20;34.00;;;;;;5049301;28;20047;-79
2022/08/13 07:56:12;;;;;;;34.38;32.28;;;27.40;33.50;;;;;;5049440;28;20032;-79
2022/08/13 07:58:38;;;;;;;35.13;32.78;;;27.50;33.10;;;;;;5032724;28;20392;-79
2022/08/13 08:01:05;;;;;;;37.30;34.97;;;27.50;33.10;;;;;;5049012;28;20461;-79
2022/08/13 08:03:37;;;;;;;36.38;34.42;;;27.70;33.10;;;;;;5049196;28;20029;-79
2022/08/13 08:06:05;;;;;;;38.22;35.97;;;28.00;33.40;;;;;;5050308;28;20391;-79
2022/08/13 08:08:33;;;;;;;1999.90;999.90;;;28.20;33.20;;;;;;5052836;28;20028;-79
2022/08/13 08:11:02;;;;;;;1999.90;999.90;;;28.50;32.50;;;;;;5053277;28;20037;-79
2022/08/13 08:13:32;;;;;;;1999.90;999.90;;;28.70;32.20;;;;;;5036027;28;20044;-79
2022/08/13 08:16:01;;;;;;;1999.90;999.90;;;28.90;31.70;;;;;;5052664;28;20108;-79
2022/08/13 08:18:27;;;;;;;1999.90;999.90;;;28.90;30.80;;;;;;5053074;28;20055;-79
2022/08/13 08:21:07;;;;;;;1999.90;999.90;;;29.00;30.60;;;;;;5036019;28;20041;-80
2022/08/13 08:23:35;;;;;;;1999.90;999.90;;;28.90;30.80;;;;;;5053650;28;20047;-80
2022/08/13 08:26:07;;;;;;;1999.90;999.90;;;29.00;31.10;;;;;;5052924;28;20032;-80
2022/08/13 08:28:35;;;;;;;1999.90;999.90;;;29.10;30.60;;;;;;5052985;28;20032;-80
2022/08/13 08:31:06;;;;;;;1999.90;999.90;;;29.30;30.60;;;;;;5052411;28;20045;-80
2022/08/13 08:33:34;;;;;;;1999.90;999.90;;;29.60;30.90;;;;;;5052873;28;20036;-80
2022/08/13 08:36:02;;;;;;;1999.90;999.90;;;29.90;30.10;;;;;;5052350;28;20040;-80
2022/08/13 08:43:57;;;;;;;1999.90;999.90;;;30.30;29.80;;;;;;5046390;28;20029;-80
2022/08/13 08:46:23;;;;;;;1999.90;999.90;;;30.40;29.20;;;;;;5025811;28;20037;-80
2022/08/13 08:48:51;;;;;;;1999.90;999.90;;;30.30;29.30;;;;;;5053445;28;20379;-80
2022/08/13 08:51:19;;;;;;;1999.90;999.90;;;30.40;29.10;;;;;;5051658;28;20479;-80
2022/08/13 08:53:46;;;;;;;1999.90;999.90;;;30.40;29.10;;;;;;5052069;28;20459;-80
2022/08/13 08:56:12;;;;;;;1999.90;999.90;;;30.40;29.30;;;;;;5052255;28;20036;-79
2022/08/13 08:58:40;;;;;;;1999.90;999.90;;;30.40;28.90;;;;;;5051934;28;20029;-80
2022/08/13 09:01:21;;;;;;;1999.90;999.90;;;30.40;29.40;;;;;;5051701;28;20044;-80
2022/08/13 09:03:47;;;;;;;1999.90;999.90;;;30.70;29.50;;;;;;5037010;28;20040;-80
2022/08/13 09:06:13;;;;;;;1999.90;999.90;;;31.00;28.90;;;;;;5051814;28;20364;-80
2022/08/13 09:08:39;;;;;;;1999.90;999.90;;;30.90;29.00;;;;;;5035087;28;20033;-80
2022/08/13 09:11:05;;;;;;;1999.90;999.90;;;30.80;29.10;;;;;;5035020;28;20053;-80
2022/08/13 09:13:31;;;;;;;1999.90;999.90;;;31.00;29.30;;;;;;5034993;28;20037;-80
2022/08/13 09:15:58;;;;;;;1999.90;999.90;;;31.00;28.80;;;;;;5034632;28;20052;-80
2022/08/13 09:18:24;;;;;;;1999.90;999.90;;;31.00;29.00;;;;;;5034898;28;20399;-80
2022/08/13 09:20:51;;;;;;;1999.90;999.90;;;31.20;28.60;;;;;;5051312;28;20040;-80
2022/08/13 09:23:17;;;;;;;1999.90;999.90;;;31.00;28.60;;;;;;5035212;28;20041;-80
2022/08/13 09:25:48;;;;;;;1999.90;999.90;;;31.00;28.90;;;;;;5051585;28;20056;-80
2022/08/13 09:28:23;;;;;;;1999.90;999.90;;;31.10;28.70;;;;;;5051667;28;20033;-80
2022/08/13 09:30:50;;;;;;;1999.90;999.90;;;31.40;28.60;;;;;;5034995;28;20487;-80
2022/08/13 09:33:17;;;;;;;1999.90;999.90;;;31.60;28.40;;;;;;5051308;28;20025;-80
2022/08/13 09:35:43;;;;;;;1999.90;999.90;;;31.90;28.00;;;;;;5051104;28;20403;-80
2022/08/13 09:38:10;;;;;;;1999.90;999.90;;;32.00;27.60;;;;;;5034645;28;20037;-80
2022/08/13 09:40:45;;;;;;;1999.90;999.90;;;32.00;27.10;;;;;;5033289;28;20033;-80
2022/08/13 09:43:22;;;;;;;1999.90;999.90;;;32.10;27.00;;;;;;5015421;28;20488;-80
2022/08/13 09:45:48;;;;;;;1999.90;999.90;;;32.40;27.40;;;;;;5050714;28;20040;-80
2022/08/13 09:48:15;;;;;;;1999.90;999.90;;;32.50;26.80;;;;;;5034136;28;20400;-80
2022/08/13 09:50:41;;;;;;;1999.90;999.90;;;32.60;26.60;;;;;;5051990;28;20044;-80
2022/08/13 09:53:08;;;;;;;1999.90;999.90;;;32.70;27.10;;;;;;5034289;28;20037;-80
2022/08/13 09:55:37;;;;;;;1999.90;999.90;;;32.60;26.10;;;;;;5034340;28;20037;-80
2022/08/13 09:58:04;;;;;;;1999.90;999.90;;;32.70;26.50;;;;;;5051076;28;20029;-80
2022/08/13 10:00:33;;;;;;;1999.90;999.90;;;32.80;26.20;;;;;;5050558;28;20029;-80
2022/08/13 10:03:00;;;;;;;1999.90;999.90;;;32.80;26.00;;;;;;5034097;28;20478;-80
2022/08/13 10:05:32;;;;;;;1999.90;999.90;;;32.90;25.80;;;;;;5034220;28;20048;-80
2022/08/13 10:08:02;;;;;;;1999.90;999.90;;;33.00;25.90;;;;;;5050971;28;20032;-80
2022/08/13 10:10:28;;;;;;;1999.90;999.90;;;33.10;25.50;;;;;;5034169;28;20041;-80
2022/08/13 10:12:55;;;;;;;1999.90;999.90;;;33.10;25.60;;;;;;5034173;28;20043;-80
2022/08/13 10:15:21;;;;;;;1999.90;999.90;;;33.10;25.70;;;;;;5033729;28;20033;-80
2022/08/13 10:17:52;;;;;;;1999.90;999.90;;;33.10;25.50;;;;;;5033443;28;20036;-80
2022/08/13 10:20:21;;;;;;;1999.90;999.90;;;33.30;25.70;;;;;;5034340;28;20029;-80
2022/08/13 10:22:48;;;;;;;1999.90;999.90;;;33.40;25.30;;;;;;5050438;28;20025;-80
2022/08/13 10:25:15;;;;;;;1999.90;999.90;;;33.40;25.50;;;;;;5033888;28;20100;-80
2022/08/13 10:27:42;;;;;;;1999.90;999.90;;;33.40;25.40;;;;;;5033792;28;20043;-80
2022/08/13 10:30:08;;;;;;;1999.90;999.90;;;33.40;25.00;;;;;;5049099;28;20033;-80
2022/08/13 10:32:34;;;;;;;1999.90;999.90;;;33.60;24.90;;;;;;5049686;28;20029;-80
2022/08/13 10:35:01;;;;;;;1999.90;999.90;;;33.60;24.80;;;;;;5051308;28;20044;-80
2022/08/13 10:37:28;;;;;;;1999.90;999.90;;;33.50;24.40;;;;;;5050356;28;20033;-80
2022/08/13 10:39:56;;;;;;;1999.90;999.90;;;33.40;24.40;;;;;;5037914;28;20021;-80
2022/08/13 10:42:22;;;;;;;1999.90;999.90;;;33.40;24.70;;;;;;5030094;28;20037;-80
2022/08/13 10:44:51;;;;;;;1999.90;999.90;;;33.60;24.60;;;;;;5044694;28;20468;-80
2022/08/13 10:47:23;;;;;;;1999.90;999.90;;;33.60;24.40;;;;;;5049083;28;20056;-80
2022/08/13 10:49:49;;;;;;;1999.90;999.90;;;33.70;24.70;;;;;;5049744;28;20024;-80
2022/08/13 10:52:17;;;;;;;1999.90;999.90;;;33.70;25.00;;;;;;5033410;28;20044;-80
2022/08/13 10:54:45;;;;;;;1999.90;999.90;;;33.70;24.80;;;;;;5033202;28;20033;-80
2022/08/13 10:57:11;;;;;;;1999.90;999.90;;;33.80;24.50;;;;;;5033210;28;20538;-80
2022/08/13 10:59:39;;;;;;;1999.90;999.90;;;33.90;24.20;;;;;;5051022;28;20032;-80
2022/08/13 11:02:06;;;;;;;1999.90;999.90;;;34.10;24.70;;;;;;5048932;28;20040;-80
2022/08/13 11:04:39;;;;;;;1999.90;999.90;;;34.20;24.50;;;;;;5049531;28;20039;-80
2022/08/13 11:07:08;;;;;;;1999.90;999.90;;;34.40;24.40;;;;;;5034008;28;20032;-80
2022/08/13 11:09:36;;;;;;;1999.90;999.90;;;34.30;24.00;;;;;;5033653;28;20028;-80
2022/08/13 11:12:03;;;;;;;1999.90;999.90;;;34.40;24.40;;;;;;5049570;28;20303;-80
2022/08/13 11:14:29;;;;;;;1999.90;999.90;;;34.50;24.10;;;;;;5032487;28;20029;-80
2022/08/13 11:19:25;;;;;;;1999.90;999.90;;;34.60;23.60;;;;;;5032972;28;20044;-80
2022/08/13 11:21:52;;;;;;;1999.90;999.90;;;34.70;23.20;;;;;;5049484;28;20037;-80
2022/08/13 11:24:18;;;;;;;1999.90;999.90;;;34.70;23.60;;;;;;5033062;28;20492;-80
2022/08/13 11:26:45;;;;;;;1999.90;999.90;;;34.60;23.30;;;;;;5016209;28;20049;-80
2022/08/13 11:29:11;;;;;;;1999.90;999.90;;;34.40;23.30;;;;;;5050571;28;20479;-80
2022/08/13 11:31:37;;;;;;;1999.90;999.90;;;34.50;23.40;;;;;;5031903;28;20080;-80
2022/08/13 11:34:03;;;;;;;1999.90;999.90;;;34.60;23.70;;;;;;5032519;28;20025;-80
2022/08/13 11:36:30;;;;;;;1999.90;999.90;;;34.80;22.90;;;;;;5013080;28;20041;-80
2022/08/13 11:38:56;;;;;;;1999.90;999.90;;;34.80;22.70;;;;;;5033125;28;20029;-80
2022/08/13 11:41:22;;;;;;;1999.90;999.90;;;34.70;22.80;;;;;;5035736;28;20391;-80
2022/08/13 11:43:49;;;;;;;1999.90;999.90;;;34.80;22.80;;;;;;5031370;28;20468;-80
2022/08/13 11:46:15;;;;;;;1999.90;999.90;;;35.00;22.80;;;;;;5025536;28;20044;-80
2022/08/13 11:48:42;;;;;;;1999.90;999.90;;;35.00;22.30;;;;;;5053207;28;20040;-80
2022/08/13 11:51:08;;;;;;;1999.90;999.90;;;35.00;22.80;;;;;;5053335;28;20471;-80
2022/08/13 11:53:34;;;;;;;1999.90;999.90;;;35.20;23.00;;;;;;5053057;28;20028;-80
2022/08/13 11:56:00;;;;;;;1999.90;999.90;;;35.10;22.90;;;;;;5054380;28;20036;-80
2022/08/13 11:58:26;;;;;;;1999.90;999.90;;;35.30;22.50;;;;;;5054387;28;20033;-80
2022/08/13 12:00:54;;;;;;;1999.90;999.90;;;35.50;21.90;;;;;;5052415;28;20025;-80
2022/08/13 12:03:20;;;;;;;1999.90;999.90;;;35.60;21.20;;;;;;5053034;28;20029;-80
2022/08/13 12:05:46;;;;;;;1999.90;999.90;;;35.60;21.90;;;;;;5036334;28;20040;-80
2022/08/13 12:08:17;;;;;;;1999.90;999.90;;;35.60;21.80;;;;;;5053028;28;20041;-80
2022/08/13 12:10:43;;;;;;;;;;;35.50;22.00;;;;;;5036435;28;20037;-80
2022/08/13 12:13:09;;;;;;;1999.90;999.90;;;35.40;22.20;;;;;;5052404;28;19911;-80
2022/08/13 12:15:35;;;;;;;1999.90;999.90;;;35.50;22.00;;;;;;5052418;28;20029;-80
2022/08/13 12:18:01;;;;;;;1999.90;999.90;;;35.50;22.10;;;;;;5052701;28;20044;-80
2022/08/13 12:20:27;;;;;;;1999.90;999.90;;;35.70;21.90;;;;;;5052602;28;20024;-80
2022/08/13 12:22:54;;;;;;;1999.90;999.90;;;35.50;22.10;;;;;;5036364;28;20049;-80
2022/08/13 12:25:21;;;;;;;1999.90;999.90;;;35.60;21.80;;;;;;5052727;28;20498;-80
2022/08/13 12:27:47;;;;;;;1999.90;999.90;;;35.70;22.00;;;;;;5036275;28;20037;-80
2022/08/13 12:30:14;;;;;;;1999.90;999.90;;;35.60;21.80;;;;;;5035368;28;20041;-80
2022/08/13 12:32:40;;;;;;;1999.90;999.90;;;35.60;21.80;;;;;;5035788;28;20345;-80
2022/08/13 12:35:06;;;;;;;1999.90;999.90;;;35.50;22.00;;;;;;5052312;28;20033;-80
2022/08/13 12:37:33;;;;;;;1999.90;999.90;;;35.80;21.90;;;;;;5052179;28;20483;-81
2022/08/13 12:39:59;;;;;;;1999.90;999.90;;;36.10;21.90;;;;;;5052196;28;20044;-80
2022/08/13 12:42:26;;;;;;;1999.90;999.90;;;36.30;21.70;;;;;;5052424;28;20044;-80
2022/08/13 12:44:52;;;;;;;1999.90;999.90;;;36.10;20.80;;;;;;5037633;28;20041;-80